createdAt,value
2018-10-21T00:02:04.410Z,3.27
2018-10-21T00:04:31.505Z,2.67
2018-10-21T00:06:58.652Z,2.87
2018-10-21T00:09:25.792Z,3.20
2018-10-21T00:11:52.888Z,2.63
2018-10-21T00:14:20.012Z,4.83
2018-10-21T00:16:47.123Z,3.67
2018-10-21T00:19:14.249Z,3.53
2018-10-21T00:21:41.384Z,3.30
2018-10-21T00:24:08.514Z,2.10
2018-10-21T00:26:35.623Z,4.03
2018-10-21T00:29:02.706Z,2.53
2018-10-21T00:31:29.838Z,3.83
2018-10-21T00:33:56.933Z,3.00
2018-10-21T00:36:24.048Z,2.30
2018-10-21T00:38:51.137Z,2.40
2018-10-21T00:41:18.268Z,3.07
2018-10-21T00:43:45.382Z,2.53
2018-10-21T00:46:12.472Z,3.57
2018-10-21T00:48:39.571Z,3.07
2018-10-21T00:51:06.702Z,2.83
2018-10-21T00:53:33.790Z,3.43
2018-10-21T00:56:00.910Z,3.27
2018-10-21T00:58:28.008Z,2.53
2018-10-21T01:00:55.121Z,3.33
2018-10-21T01:03:22.203Z,3.77
2018-10-21T01:05:49.278Z,3.27
2018-10-21T01:08:16.382Z,2.87
2018-10-21T01:10:43.495Z,3.03
2018-10-21T01:13:10.598Z,3.63
2018-10-21T01:15:37.715Z,2.73
2018-10-21T01:18:04.836Z,3.10
2018-10-21T01:20:31.971Z,3.73
2018-10-21T01:22:59.095Z,1.77
2018-10-21T01:25:26.192Z,2.83
2018-10-21T01:27:53.303Z,2.83
2018-10-21T01:30:20.394Z,3.13
2018-10-21T01:32:47.495Z,2.40
2018-10-21T01:35:14.603Z,4.13
2018-10-21T01:37:41.743Z,3.33
2018-10-21T01:40:47.769Z,2.27
2018-10-21T01:43:15.980Z,2.57
2018-10-21T01:45:43.076Z,2.63
2018-10-21T01:48:11.292Z,3.23
2018-10-21T01:50:38.403Z,3.53
2018-10-21T01:53:06.591Z,2.40
2018-10-21T01:55:33.675Z,2.90
2018-10-21T01:58:01.120Z,4.33
2018-10-21T02:00:28.757Z,2.50
2018-10-21T02:02:56.369Z,3.07
2018-10-21T02:05:23.697Z,3.00
2018-10-21T02:07:50.811Z,2.63
2018-10-21T02:10:17.965Z,2.97
2018-10-21T02:12:45.056Z,2.97
2018-10-21T02:15:12.720Z,2.47
2018-10-21T02:17:40.033Z,2.70
2018-10-21T02:20:07.844Z,4.33
2018-10-21T02:22:34.952Z,4.03
2018-10-21T02:25:02.229Z,3.60
2018-10-21T02:27:29.326Z,3.60
2018-10-21T02:29:56.431Z,3.77
2018-10-21T02:32:23.565Z,3.97
2018-10-21T02:34:50.695Z,2.47
2018-10-21T02:37:17.826Z,2.60
2018-10-21T02:39:44.958Z,2.40
2018-10-21T02:42:12.073Z,2.80
2018-10-21T02:44:39.212Z,3.33
2018-10-21T02:47:06.319Z,2.63
2018-10-21T02:49:33.414Z,2.80
2018-10-21T02:52:06.924Z,2.73
2018-10-21T02:54:34.552Z,3.13
2018-10-21T02:57:02.171Z,2.40
2018-10-21T02:59:29.270Z,3.20
2018-10-21T03:01:56.366Z,4.13
2018-10-21T03:04:23.735Z,2.13
2018-10-21T03:06:51.115Z,3.77
2018-10-21T03:09:18.213Z,2.67
2018-10-21T03:11:45.356Z,3.00
2018-10-21T03:14:12.503Z,2.90
2018-10-21T03:16:39.611Z,2.23
2018-10-21T03:19:06.691Z,2.67
2018-10-21T03:21:33.765Z,2.70
2018-10-21T03:24:00.895Z,1.93
2018-10-21T03:26:27.973Z,2.53
2018-10-21T03:28:55.116Z,4.43
2018-10-21T03:31:22.219Z,3.50
2018-10-21T03:33:49.840Z,4.03
2018-10-21T03:36:16.732Z,3.57
2018-10-21T03:38:43.847Z,2.93
2018-10-21T03:41:10.942Z,3.13
2018-10-21T03:43:38.044Z,3.40
2018-10-21T03:46:05.223Z,2.23
2018-10-21T03:48:32.291Z,2.17
2018-10-21T03:50:59.388Z,2.77
2018-10-21T03:53:26.492Z,2.10
2018-10-21T03:55:53.579Z,4.87
2018-10-21T03:58:20.654Z,2.63
2018-10-21T04:00:47.722Z,5.07
2018-10-21T04:03:14.820Z,2.90
2018-10-21T04:05:41.921Z,4.37
2018-10-21T04:08:09.040Z,3.47
2018-10-21T04:10:36.138Z,5.53
2018-10-21T04:13:03.446Z,3.00
2018-10-21T04:15:30.592Z,3.50
2018-10-21T04:17:57.719Z,2.33
2018-10-21T04:20:24.855Z,1.97
2018-10-21T04:22:53.954Z,4.37
2018-10-21T04:25:28.743Z,3.00
2018-10-21T04:27:56.642Z,3.20
2018-10-21T04:30:28.715Z,2.60
2018-10-21T04:33:03.311Z,2.60
2018-10-21T04:35:30.600Z,4.17
2018-10-21T04:40:13.430Z,4.10
2018-10-21T04:42:40.444Z,3.80
2018-10-21T04:45:07.963Z,3.07
2018-10-21T04:47:35.059Z,2.43
2018-10-21T04:50:02.164Z,3.60
2018-10-21T04:52:30.174Z,2.17
2018-10-21T04:55:13.213Z,2.57
2018-10-21T04:57:41.362Z,5.00
2018-10-21T05:00:09.698Z,3.90
2018-10-21T05:02:36.795Z,2.67
2018-10-21T05:05:04.583Z,3.87
2018-10-21T05:07:31.723Z,2.67
2018-10-21T05:09:58.787Z,4.57
2018-10-21T05:12:25.905Z,2.77
2018-10-21T05:14:53.009Z,4.23
2018-10-21T05:17:20.104Z,4.03
2018-10-21T05:19:47.191Z,2.07
2018-10-21T05:22:14.359Z,3.80
2018-10-21T05:24:41.359Z,3.63
2018-10-21T05:27:08.587Z,2.83
2018-10-21T05:29:35.699Z,3.30
2018-10-21T05:32:03.052Z,2.67
2018-10-21T05:34:30.158Z,3.83
2018-10-21T05:36:57.247Z,3.67
2018-10-21T05:39:24.311Z,2.73
2018-10-21T05:41:51.427Z,3.30
2018-10-21T05:44:18.516Z,3.10
2018-10-21T05:46:46.864Z,3.37
2018-10-21T05:49:14.047Z,3.57
2018-10-21T05:51:43.300Z,3.23
2018-10-21T05:54:11.408Z,2.83
2018-10-21T05:56:39.882Z,3.07
2018-10-21T05:59:06.987Z,3.57
2018-10-21T06:01:34.073Z,3.43
2018-10-21T06:04:01.261Z,2.70
2018-10-21T06:06:28.285Z,4.80
2018-10-21T06:08:55.360Z,3.60
2018-10-21T06:11:22.459Z,2.47
2018-10-21T06:13:49.551Z,2.80
2018-10-21T06:16:16.678Z,4.63
2018-10-21T06:18:43.716Z,3.27
2018-10-21T06:21:10.850Z,2.77
2018-10-21T06:23:37.964Z,3.77
2018-10-21T06:26:05.470Z,3.57
2018-10-21T06:28:32.562Z,3.90
2018-10-21T06:30:59.660Z,3.63
2018-10-21T06:33:26.768Z,2.83
2018-10-21T06:35:53.915Z,2.30
2018-10-21T06:38:20.999Z,3.27
2018-10-21T06:40:48.099Z,3.80
2018-10-21T06:43:15.199Z,3.60
2018-10-21T06:45:42.356Z,2.70
2018-10-21T06:48:09.387Z,2.27
2018-10-21T06:50:36.500Z,4.07
2018-10-21T06:53:03.615Z,2.13
2018-10-21T06:55:30.714Z,2.00
2018-10-21T06:57:57.805Z,3.37
2018-10-21T07:00:24.901Z,2.47
2018-10-21T07:02:51.994Z,2.57
2018-10-21T07:05:30.547Z,3.23
2018-10-21T07:07:57.623Z,3.53
2018-10-21T07:10:24.722Z,2.07
2018-10-21T07:12:51.846Z,3.33
2018-10-21T07:15:19.479Z,4.60
2018-10-21T07:17:46.505Z,3.07
2018-10-21T07:20:13.651Z,5.73
2018-10-21T07:22:41.775Z,2.83
2018-10-21T07:25:09.322Z,2.23
2018-10-21T07:27:36.466Z,2.27
2018-10-21T07:30:04.175Z,2.50
2018-10-21T07:32:31.290Z,3.10
2018-10-21T07:34:58.380Z,2.10
2018-10-21T07:37:25.480Z,2.60
2018-10-21T07:39:52.580Z,3.83
2018-10-21T07:42:19.687Z,2.97
2018-10-21T07:44:46.810Z,3.53
2018-10-21T07:47:13.899Z,3.37
2018-10-21T07:49:40.974Z,6.27
2018-10-21T07:52:08.089Z,4.07
2018-10-21T07:54:35.435Z,3.00
2018-10-21T07:57:02.698Z,5.10
2018-10-21T07:59:29.795Z,4.00
2018-10-21T08:01:56.890Z,2.50
2018-10-21T08:04:23.987Z,3.13
2018-10-21T08:07:02.688Z,4.00
2018-10-21T08:09:29.794Z,3.37
2018-10-21T08:11:56.907Z,2.90
2018-10-21T08:14:23.982Z,3.10
2018-10-21T08:16:51.112Z,3.03
2018-10-21T08:19:18.216Z,3.73
2018-10-21T08:21:45.332Z,3.37
2018-10-21T08:24:12.415Z,3.00
2018-10-21T08:26:39.499Z,4.40
2018-10-21T08:29:06.611Z,3.30
2018-10-21T08:31:33.724Z,3.93
2018-10-21T08:34:00.827Z,3.07
2018-10-21T08:36:27.940Z,3.23
2018-10-21T08:38:55.041Z,3.90
2018-10-21T08:41:22.151Z,3.10
2018-10-21T08:43:49.255Z,3.80
2018-10-21T08:46:16.393Z,5.20
2018-10-21T08:48:43.463Z,2.80
2018-10-21T08:51:10.555Z,3.10
2018-10-21T08:53:37.671Z,2.80
2018-10-21T08:56:04.981Z,4.70
2018-10-21T08:58:31.928Z,3.70
2018-10-21T09:00:59.082Z,4.17
2018-10-21T09:03:26.332Z,3.23
2018-10-21T09:05:53.431Z,3.90
2018-10-21T09:08:20.540Z,3.47
2018-10-21T09:10:47.744Z,3.27
2018-10-21T09:13:14.837Z,3.37
2018-10-21T09:15:41.863Z,3.47
2018-10-21T09:18:08.971Z,4.37
2018-10-21T09:20:36.083Z,2.83
2018-10-21T09:23:03.267Z,4.90
2018-10-21T09:25:30.380Z,2.63
2018-10-21T09:27:57.526Z,3.37
2018-10-21T09:30:24.583Z,5.33
2018-10-21T09:32:51.699Z,3.80
2018-10-21T09:35:19.074Z,3.20
2018-10-21T09:37:46.185Z,3.73
2018-10-21T09:40:14.820Z,4.30
2018-10-21T09:42:42.170Z,3.07
2018-10-21T09:45:11.071Z,3.33
2018-10-21T09:47:38.166Z,4.57
2018-10-21T09:50:05.351Z,2.27
2018-10-21T09:52:32.459Z,3.40
2018-10-21T09:54:59.550Z,3.57
2018-10-21T09:57:26.651Z,2.93
2018-10-21T09:59:53.734Z,3.23
2018-10-21T10:02:26.657Z,3.50
2018-10-21T10:04:53.763Z,2.97
2018-10-21T10:07:20.844Z,3.10
2018-10-21T10:09:47.924Z,3.23
2018-10-21T10:12:14.992Z,4.20
2018-10-21T10:14:42.100Z,4.20
2018-10-21T10:17:09.189Z,4.63
2018-10-21T10:19:36.298Z,3.23
2018-10-21T10:22:03.443Z,3.40
2018-10-21T10:24:30.513Z,3.77
2018-10-21T10:26:57.598Z,2.70
2018-10-21T10:29:24.710Z,2.53
2018-10-21T10:31:51.814Z,4.33
2018-10-21T10:34:18.991Z,3.07
2018-10-21T10:36:46.044Z,4.37
2018-10-21T10:39:13.145Z,4.70
2018-10-21T10:41:40.408Z,3.57
2018-10-21T10:44:07.520Z,3.50
2018-10-21T10:46:34.628Z,2.90
2018-10-21T10:49:01.776Z,3.80
2018-10-21T10:51:28.851Z,2.53
2018-10-21T10:53:55.931Z,3.30
2018-10-21T10:56:23.018Z,3.00
2018-10-21T10:58:50.110Z,3.13
2018-10-21T11:01:17.321Z,2.90
2018-10-21T11:03:44.390Z,2.53
2018-10-21T11:06:11.516Z,2.47
2018-10-21T11:08:38.619Z,3.17
2018-10-21T11:11:05.820Z,3.63
2018-10-21T11:13:32.925Z,2.30
2018-10-21T11:16:00.072Z,2.73
2018-10-21T11:18:27.135Z,4.13
2018-10-21T11:20:54.227Z,5.00
2018-10-21T11:23:21.424Z,3.37
2018-10-21T11:25:48.512Z,3.83
2018-10-21T11:28:15.689Z,2.47
2018-10-21T11:30:42.721Z,2.23
2018-10-21T11:33:09.818Z,2.33
2018-10-21T11:35:36.911Z,2.83
2018-10-21T11:38:04.282Z,2.63
2018-10-21T11:40:31.468Z,2.10
2018-10-21T11:42:58.616Z,2.30
2018-10-21T11:45:25.763Z,2.97
2018-10-21T11:47:52.835Z,3.13
2018-10-21T11:50:19.936Z,2.50
2018-10-21T11:52:47.098Z,3.47
2018-10-21T11:55:14.215Z,2.77
2018-10-21T11:57:41.276Z,3.17
2018-10-21T12:00:09.003Z,1.60
2018-10-21T12:02:36.120Z,2.73
2018-10-21T12:05:03.357Z,2.10
2018-10-21T12:07:30.451Z,2.50
2018-10-21T12:09:57.564Z,2.70
2018-10-21T12:12:24.647Z,3.70
2018-10-21T12:14:51.758Z,3.57
2018-10-21T12:17:18.872Z,2.87
2018-10-21T12:19:45.983Z,2.70
2018-10-21T12:22:13.176Z,3.60
2018-10-21T12:24:40.211Z,3.90
2018-10-21T12:27:07.451Z,2.77
2018-10-21T12:29:34.544Z,4.33
2018-10-21T12:32:01.748Z,2.10
2018-10-21T12:34:28.860Z,2.43
2018-10-21T12:36:55.981Z,2.10
2018-10-21T12:39:23.055Z,2.30
2018-10-21T12:41:50.176Z,3.00
2018-10-21T12:44:17.255Z,3.03
2018-10-21T12:46:44.360Z,2.87
2018-10-21T12:49:11.533Z,2.13
2018-10-21T12:51:38.560Z,2.73
2018-10-21T12:54:05.856Z,3.07
2018-10-21T12:56:32.911Z,2.57
2018-10-21T12:58:59.992Z,1.70
2018-10-21T13:01:27.076Z,2.23
2018-10-21T13:03:54.192Z,3.27
2018-10-21T13:06:21.279Z,2.63
2018-10-21T13:08:48.371Z,2.23
2018-10-21T13:11:15.471Z,1.37
2018-10-21T13:13:42.575Z,2.67
2018-10-21T13:16:09.748Z,2.30
2018-10-21T13:18:36.798Z,1.47
2018-10-21T13:21:04.150Z,2.73
2018-10-21T13:23:31.311Z,2.83
2018-10-21T13:25:58.414Z,2.60
2018-10-21T13:28:25.681Z,2.33
2018-10-21T13:30:52.666Z,3.03
2018-10-21T13:33:19.795Z,2.50
2018-10-21T13:35:46.888Z,4.07
2018-10-21T13:38:13.994Z,2.43
2018-10-21T13:40:41.483Z,3.33
2018-10-21T13:43:08.602Z,2.07
2018-10-21T13:45:35.637Z,3.37
2018-10-21T13:48:02.771Z,1.90
2018-10-21T13:50:29.900Z,1.90
2018-10-21T13:52:57.095Z,2.67
2018-10-21T13:55:24.094Z,2.93
2018-10-21T13:57:51.333Z,2.37
2018-10-21T14:00:18.480Z,2.27
2018-10-21T14:02:45.575Z,2.57
2018-10-21T14:05:12.681Z,1.87
2018-10-21T14:07:39.787Z,1.63
2018-10-21T14:10:07.243Z,2.47
2018-10-21T14:12:34.326Z,2.17
2018-10-21T14:15:01.523Z,2.37
2018-10-21T14:17:28.552Z,3.60
2018-10-21T14:19:55.655Z,1.53
2018-10-21T14:22:22.787Z,2.13
2018-10-21T14:24:49.932Z,2.67
2018-10-21T14:27:17.011Z,2.57
2018-10-21T14:29:44.109Z,2.53
2018-10-21T14:32:11.203Z,1.43
2018-10-21T14:34:38.313Z,1.97
2018-10-21T14:37:05.404Z,2.47
2018-10-21T14:39:32.503Z,2.60
2018-10-21T14:41:59.631Z,1.97
2018-10-21T14:44:26.712Z,2.00
2018-10-21T14:46:53.843Z,1.53
2018-10-21T14:49:20.942Z,2.43
2018-10-21T14:51:48.036Z,2.43
2018-10-21T14:54:15.210Z,2.07
2018-10-21T14:56:42.244Z,2.00
2018-10-21T14:59:09.374Z,1.73
2018-10-21T15:01:36.636Z,2.63
2018-10-21T15:04:03.923Z,2.20
2018-10-21T15:06:31.012Z,4.00
2018-10-21T15:08:58.151Z,1.80
2018-10-21T15:11:25.282Z,3.17
2018-10-21T15:13:52.606Z,2.30
2018-10-21T15:16:19.739Z,1.93
2018-10-21T15:18:46.827Z,2.37
2018-10-21T15:21:13.912Z,2.23
2018-10-21T15:23:40.994Z,1.40
2018-10-21T15:26:08.124Z,2.10
2018-10-21T15:28:35.199Z,1.83
2018-10-21T15:31:02.283Z,2.37
2018-10-21T15:33:29.379Z,1.40
2018-10-21T15:35:56.475Z,2.53
2018-10-21T15:38:23.598Z,2.03
2018-10-21T15:40:50.720Z,3.33
2018-10-21T15:43:17.827Z,2.27
2018-10-21T15:45:44.962Z,1.90
2018-10-21T15:48:12.052Z,2.63
2018-10-21T15:50:39.239Z,2.90
2018-10-21T15:53:06.285Z,2.10
2018-10-21T15:55:33.402Z,2.70
2018-10-21T15:58:00.516Z,2.73
2018-10-21T16:00:27.629Z,3.03
2018-10-21T16:02:54.784Z,1.97
2018-10-21T16:05:21.854Z,2.77
2018-10-21T16:07:48.975Z,2.60
2018-10-21T16:10:16.168Z,2.37
2018-10-21T16:12:43.135Z,4.37
2018-10-21T16:15:12.578Z,1.77
2018-10-21T16:17:39.669Z,3.23
2018-10-21T16:20:07.104Z,3.30
2018-10-21T16:22:35.682Z,4.00
2018-10-21T16:25:02.779Z,1.67
2018-10-21T16:27:29.857Z,2.90
2018-10-21T16:29:56.999Z,1.80
2018-10-21T16:32:24.171Z,3.63
2018-10-21T16:34:51.226Z,2.40
2018-10-21T16:37:18.352Z,2.20
2018-10-21T16:39:45.476Z,2.73
2018-10-21T16:42:12.576Z,2.63
2018-10-21T16:44:39.699Z,3.23
2018-10-21T16:47:06.780Z,1.60
2018-10-21T16:49:33.870Z,2.63
2018-10-21T16:52:00.950Z,2.83
2018-10-21T16:54:28.057Z,4.60
2018-10-21T16:56:55.150Z,2.60
2018-10-21T16:59:22.327Z,2.23
2018-10-21T17:01:49.412Z,4.57
2018-10-21T17:04:16.511Z,3.20
2018-10-21T17:06:43.607Z,2.67
2018-10-21T17:09:12.737Z,2.50
2018-10-21T17:11:39.787Z,3.73
2018-10-21T17:14:06.911Z,3.73
2018-10-21T17:16:34.010Z,5.23
2018-10-21T17:19:01.492Z,3.47
2018-10-21T17:21:28.574Z,3.40
2018-10-21T17:23:55.661Z,4.00
2018-10-21T17:26:22.782Z,5.87
2018-10-21T17:28:49.887Z,3.30
2018-10-21T17:31:17.094Z,2.87
2018-10-21T17:33:44.131Z,4.13
2018-10-21T17:36:11.223Z,5.27
2018-10-21T17:38:38.324Z,5.17
2018-10-21T17:41:05.451Z,3.67
2018-10-21T17:43:32.545Z,4.40
2018-10-21T17:45:59.663Z,4.50
2018-10-21T17:48:26.787Z,4.57
2018-10-21T17:50:53.879Z,4.80
2018-10-21T17:53:20.976Z,4.90
2018-10-21T17:55:48.077Z,4.17
2018-10-21T17:58:15.214Z,4.87
2018-10-21T18:00:42.290Z,5.23
2018-10-21T18:03:09.394Z,5.40
2018-10-21T18:05:36.543Z,4.97
2018-10-21T18:08:03.633Z,5.30
2018-10-21T18:10:30.716Z,5.37
2018-10-21T18:12:57.891Z,4.13
2018-10-21T18:15:24.957Z,5.47
2018-10-21T18:17:52.518Z,5.73
2018-10-21T18:20:19.615Z,5.10
2018-10-21T18:22:46.721Z,5.03
2018-10-21T18:25:13.954Z,4.17
2018-10-21T18:27:41.306Z,5.43
2018-10-21T18:30:09.375Z,4.83
2018-10-21T18:32:36.483Z,4.47
2018-10-21T18:35:04.259Z,6.83
2018-10-21T18:37:31.363Z,5.20
2018-10-21T18:39:58.566Z,4.97
2018-10-21T18:42:25.665Z,4.17
2018-10-21T18:44:52.764Z,4.47
2018-10-21T18:47:19.903Z,6.07
2018-10-21T18:49:46.992Z,6.13
2018-10-21T18:52:14.493Z,4.23
2018-10-21T18:54:41.567Z,4.43
2018-10-21T18:57:08.711Z,4.40
2018-10-21T18:59:35.812Z,6.70
2018-10-21T19:02:02.932Z,3.73
2018-10-21T19:04:30.036Z,3.87
2018-10-21T19:06:57.157Z,6.80
2018-10-21T19:09:24.235Z,5.27
2018-10-21T19:11:51.311Z,6.13
2018-10-21T19:14:18.410Z,4.47
2018-10-21T19:16:45.503Z,4.90
2018-10-21T19:19:12.617Z,4.93
2018-10-21T19:21:39.688Z,5.67
2018-10-21T19:24:06.807Z,4.63
2018-10-21T19:26:33.939Z,4.70
2018-10-21T19:29:01.053Z,3.43
2018-10-21T19:31:28.163Z,4.40
2018-10-21T19:33:55.359Z,5.30
2018-10-21T19:36:22.351Z,4.47
2018-10-21T19:38:49.451Z,4.07
2018-10-21T19:41:16.561Z,7.23
2018-10-21T19:43:43.789Z,5.10
2018-10-21T19:46:10.985Z,4.87
2018-10-21T19:48:38.020Z,5.57
2018-10-21T19:51:05.135Z,3.97
2018-10-21T19:53:32.291Z,6.87
2018-10-21T19:55:59.368Z,5.27
2018-10-21T19:58:26.526Z,3.80
2018-10-21T20:00:53.582Z,6.10
2018-10-21T20:03:20.696Z,4.33
2018-10-21T20:05:47.979Z,5.20
2018-10-21T20:08:15.071Z,5.40
2018-10-21T20:10:42.600Z,4.53
2018-10-21T20:13:09.739Z,5.93
2018-10-21T20:15:36.803Z,5.10
2018-10-21T20:18:04.208Z,4.77
2018-10-21T20:20:31.942Z,5.10
2018-10-21T20:22:59.068Z,4.40
2018-10-21T20:25:26.154Z,3.73
2018-10-21T20:27:53.271Z,4.77
2018-10-21T20:30:20.409Z,5.47
2018-10-21T20:32:47.573Z,4.23
2018-10-21T20:35:14.639Z,5.07
2018-10-21T20:37:41.740Z,5.73
2018-10-21T20:40:09.585Z,5.47
2018-10-21T20:42:36.639Z,4.93
2018-10-21T20:45:04.078Z,5.47
2018-10-21T20:47:31.171Z,5.10
2018-10-21T20:49:58.258Z,4.57
2018-10-21T20:52:25.331Z,5.83
2018-10-21T20:54:52.527Z,6.90
2018-10-21T20:57:19.619Z,6.53
2018-10-21T20:59:47.139Z,4.43
2018-10-21T21:02:15.003Z,6.50
2018-10-21T21:04:42.095Z,5.33
2018-10-21T21:07:09.741Z,5.47
2018-10-21T21:09:38.413Z,4.90
2018-10-21T21:12:05.580Z,5.27
2018-10-21T21:14:33.003Z,4.37
2018-10-21T21:17:00.179Z,5.80
2018-10-21T21:19:27.271Z,6.40
2018-10-21T21:21:54.422Z,5.57
2018-10-21T21:24:21.528Z,6.10
2018-10-21T21:26:48.893Z,3.77
2018-10-21T21:29:16.228Z,4.87
2018-10-21T21:31:44.140Z,6.00
2018-10-21T21:34:11.345Z,4.80
2018-10-21T21:36:38.355Z,5.27
2018-10-21T21:39:07.812Z,5.53
2018-10-21T21:41:34.939Z,4.50
2018-10-21T21:44:02.292Z,5.43
2018-10-21T21:46:29.637Z,5.83
2018-10-21T21:48:56.735Z,4.87
2018-10-21T21:51:23.931Z,7.23
2018-10-21T21:53:51.049Z,4.70
2018-10-21T21:56:18.389Z,5.27
2018-10-21T21:58:46.038Z,5.60
2018-10-21T22:01:13.180Z,5.47
2018-10-21T22:03:40.337Z,4.37
2018-10-21T22:06:07.633Z,6.40
2018-10-21T22:08:34.751Z,5.37
2018-10-21T22:11:01.855Z,4.83
2018-10-21T22:13:28.971Z,5.10
2018-10-21T22:15:56.086Z,4.90
2018-10-21T22:18:23.203Z,5.70
2018-10-21T22:20:50.317Z,4.60
2018-10-21T22:23:17.420Z,7.10
2018-10-21T22:25:44.661Z,4.80
2018-10-21T22:28:11.804Z,6.20
2018-10-21T22:30:38.895Z,4.57
2018-10-21T22:33:06.057Z,5.50
2018-10-21T22:35:33.186Z,4.10
2018-10-21T22:38:00.375Z,6.80
2018-10-21T22:40:27.526Z,4.60
2018-10-21T22:42:54.633Z,5.77
2018-10-21T22:45:21.735Z,5.97
2018-10-21T22:47:48.814Z,5.40
2018-10-21T22:50:15.922Z,4.87
2018-10-21T22:52:43.184Z,4.63
2018-10-21T22:55:10.435Z,3.90
2018-10-21T22:57:37.555Z,5.10
2018-10-21T23:00:06.705Z,4.27
2018-10-21T23:02:33.738Z,3.90
2018-10-21T23:05:00.849Z,5.07
2018-10-21T23:07:27.930Z,5.77
2018-10-21T23:09:55.089Z,5.87
2018-10-21T23:12:22.158Z,4.60
2018-10-21T23:14:49.222Z,5.63
2018-10-21T23:17:16.318Z,4.93
2018-10-21T23:19:44.711Z,4.97
2018-10-21T23:22:11.860Z,5.10
2018-10-21T23:24:39.375Z,5.00
2018-10-21T23:27:06.997Z,4.47
2018-10-21T23:29:34.127Z,5.03
2018-10-21T23:32:01.247Z,5.10
2018-10-21T23:34:28.353Z,4.10
2018-10-21T23:36:55.786Z,3.50
2018-10-21T23:39:22.880Z,5.07
2018-10-21T23:41:49.989Z,3.10
2018-10-21T23:44:17.239Z,6.33
2018-10-21T23:46:44.326Z,5.57
2018-10-21T23:49:11.443Z,4.83
2018-10-21T23:51:38.673Z,4.93
2018-10-21T23:54:05.796Z,4.43
2018-10-21T23:56:32.984Z,4.47
2018-10-21T23:59:00.073Z,4.33
